Terminal Aerodrome Forecast
Issued by NWS

Home | Current Version | Previous Version | Text Only | Print | Product List | Glossary On
Versions: 1 2 3 4 5 6 7 8 9 10 11 12 13 14 15 16 17 18 19 20 21 22 23 24 25 26 27 28 29 30
236
FTUS45 KTFX 211120
TAFHVR
TAF
KHVR 211120Z 2112/2212 28007KT P6SM SCT035 BKN070
     FM211400 27008KT P6SM SCT070
     FM211900 28010G18KT P6SM SCT070 SCT180
     FM220100 23006KT P6SM FEW070 BKN180=

USA.gov is the U.S. government's official web portal to all federal, state and local government web resources and services.